createdAt,value
2023-04-03T00:02:11.061Z,66.30
2023-04-03T00:04:37.744Z,66.50
2023-04-03T00:07:04.393Z,66.70
2023-04-03T00:09:31.002Z,66.40
2023-04-03T00:11:57.656Z,66.90
2023-04-03T00:14:26.455Z,66.60
2023-04-03T00:16:53.039Z,66.60
2023-04-03T00:19:19.697Z,66.40
2023-04-03T00:21:46.551Z,65.40
2023-04-03T00:24:13.103Z,65.30
2023-04-03T00:26:39.651Z,65.40
2023-04-03T00:29:06.209Z,65.90
2023-04-03T00:31:32.858Z,65.80
2023-04-03T00:33:59.489Z,66.20
2023-04-03T00:36:26.162Z,66.00
2023-04-03T00:38:52.739Z,66.10
2023-04-03T00:41:19.241Z,66.60
2023-04-03T00:43:45.925Z,66.70
2023-04-03T00:46:12.537Z,66.70
2023-04-03T00:48:43.677Z,66.90
2023-04-03T00:51:23.290Z,65.50
2023-04-03T00:53:49.859Z,66.50
2023-04-03T00:56:18.619Z,66.00
2023-04-03T00:58:49.586Z,66.20
2023-04-03T01:01:19.538Z,66.30
2023-04-03T01:03:46.138Z,66.30
2023-04-03T01:06:14.297Z,66.00
2023-04-03T01:08:42.339Z,66.20
2023-04-03T01:11:08.914Z,66.10
2023-04-03T01:13:35.756Z,65.60
2023-04-03T01:16:05.543Z,65.50
2023-04-03T01:18:33.039Z,65.90
2023-04-03T01:21:09.456Z,66.00
2023-04-03T01:23:41.663Z,65.80
2023-04-03T01:26:08.297Z,65.80
2023-04-03T01:28:38.587Z,65.60
2023-04-03T01:31:26.479Z,65.90
2023-04-03T01:33:53.179Z,65.90
2023-04-03T01:36:21.638Z,65.40
2023-04-03T01:38:49.060Z,65.50
2023-04-03T01:41:18.020Z,65.10
2023-04-03T01:43:44.747Z,65.30
2023-04-03T01:46:11.495Z,65.20
2023-04-03T01:48:38.224Z,64.80
2023-04-03T01:51:05.018Z,64.60
2023-04-03T01:53:31.532Z,65.50
2023-04-03T01:55:58.108Z,64.80
2023-04-03T01:58:26.806Z,64.80
2023-04-03T02:00:54.139Z,64.10
2023-04-03T02:03:21.147Z,64.40
2023-04-03T02:05:48.138Z,64.10
2023-04-03T02:08:15.282Z,63.60
2023-04-03T02:10:41.825Z,64.00
2023-04-03T02:13:08.462Z,64.60
2023-04-03T02:15:35.032Z,65.00
2023-04-03T02:18:07.516Z,65.10
2023-04-03T02:20:34.737Z,65.30
2023-04-03T02:23:01.600Z,65.20
2023-04-03T02:25:28.403Z,65.40
2023-04-03T02:27:54.982Z,65.40
2023-04-03T02:30:21.514Z,65.70
2023-04-03T02:32:48.073Z,65.90
2023-04-03T02:35:14.702Z,66.20
2023-04-03T02:37:41.559Z,66.30
2023-04-03T02:40:09.475Z,66.50
2023-04-03T02:42:38.436Z,66.60
2023-04-03T02:45:08.171Z,67.30
2023-04-03T02:47:34.829Z,67.30
2023-04-03T02:50:01.430Z,67.50
2023-04-03T02:52:28.006Z,67.30
2023-04-03T02:54:54.543Z,67.30
2023-04-03T02:57:21.285Z,67.50
2023-04-03T02:59:52.557Z,67.90
2023-04-03T03:02:19.175Z,68.00
2023-04-03T03:04:45.761Z,67.80
2023-04-03T03:07:14.832Z,67.90
2023-04-03T03:09:41.521Z,68.10
2023-04-03T03:12:08.100Z,67.90
2023-04-03T03:14:34.639Z,68.40
2023-04-03T03:17:01.251Z,68.60
2023-04-03T03:19:27.828Z,68.90
2023-04-03T03:21:54.457Z,68.90
2023-04-03T03:24:21.173Z,68.80
2023-04-03T03:26:47.697Z,69.30
2023-04-03T03:29:14.259Z,69.50
2023-04-03T03:31:40.849Z,69.30
2023-04-03T03:34:09.617Z,69.50
2023-04-03T03:36:36.337Z,69.60
2023-04-03T03:39:03.126Z,69.70
2023-04-03T03:41:29.714Z,70.00
2023-04-03T03:43:56.294Z,70.40
2023-04-03T03:46:22.880Z,70.70
2023-04-03T03:48:49.445Z,70.60
2023-04-03T03:51:16.227Z,70.60
2023-04-03T03:53:45.181Z,71.30
2023-04-03T03:56:11.736Z,71.50
2023-04-03T03:58:38.366Z,71.80
2023-04-03T04:01:06.474Z,71.80
2023-04-03T04:03:35.699Z,72.10
2023-04-03T04:06:02.320Z,72.10
2023-04-03T04:08:28.883Z,72.10
2023-04-03T04:10:55.444Z,72.00
2023-04-03T04:13:24.634Z,72.20
2023-04-03T04:15:56.122Z,71.80
2023-04-03T04:18:24.793Z,71.80
2023-04-03T04:20:51.352Z,71.60
2023-04-03T04:23:18.946Z,72.00
2023-04-03T04:25:48.990Z,72.90
2023-04-03T04:28:16.047Z,72.50
2023-04-03T04:30:42.674Z,72.50
2023-04-03T04:33:09.324Z,72.50
2023-04-03T04:35:36.340Z,72.80
2023-04-03T04:38:03.542Z,72.40
2023-04-03T04:40:30.216Z,71.80
2023-04-03T04:42:57.110Z,72.00
2023-04-03T04:45:23.646Z,72.00
2023-04-03T04:47:52.464Z,72.10
2023-04-03T04:50:19.459Z,72.10
2023-04-03T04:52:46.033Z,71.50
2023-04-03T04:55:12.582Z,71.70
2023-04-03T04:57:41.399Z,71.40
2023-04-03T05:00:11.198Z,71.30
2023-04-03T05:02:37.852Z,72.00
2023-04-03T05:05:05.360Z,72.30
2023-04-03T05:07:32.196Z,72.20
2023-04-03T05:09:58.760Z,71.80
2023-04-03T05:12:25.627Z,72.10
2023-04-03T05:14:52.164Z,72.20
2023-04-03T05:17:18.760Z,72.20
2023-04-03T05:19:47.884Z,72.50
2023-04-03T05:22:17.124Z,72.70
2023-04-03T05:24:43.655Z,72.60
2023-04-03T05:27:10.343Z,72.20
2023-04-03T05:29:36.966Z,73.00
2023-04-03T05:32:03.686Z,73.00
2023-04-03T05:34:32.785Z,72.70
2023-04-03T05:37:00.032Z,72.50
2023-04-03T05:39:26.682Z,72.80
2023-04-03T05:41:53.236Z,72.80
2023-04-03T05:44:19.878Z,73.30
2023-04-03T05:46:49.061Z,73.40
2023-04-03T05:49:15.666Z,73.40
2023-04-03T05:51:42.381Z,73.40
2023-04-03T05:54:35.388Z,73.50
2023-04-03T05:57:02.024Z,73.10
2023-04-03T05:59:31.089Z,73.50
2023-04-03T06:02:00.542Z,73.50
2023-04-03T06:04:29.652Z,72.80
2023-04-03T06:06:57.412Z,72.60
2023-04-03T06:09:26.042Z,73.10
2023-04-03T06:11:53.653Z,73.50
2023-04-03T06:14:20.343Z,73.90
2023-04-03T06:16:47.073Z,74.30
2023-04-03T06:19:13.852Z,74.20
2023-04-03T06:21:40.560Z,74.00
2023-04-03T06:24:10.062Z,73.80
2023-04-03T06:26:36.593Z,74.00
2023-04-03T06:29:03.527Z,73.50
2023-04-03T06:31:33.645Z,73.10
2023-04-03T06:34:02.593Z,72.90
2023-04-03T06:36:29.818Z,73.20
2023-04-03T06:38:56.528Z,72.90
2023-04-03T06:41:26.613Z,72.90
2023-04-03T06:43:53.226Z,73.70
2023-04-03T06:46:21.557Z,73.70
2023-04-03T06:48:48.302Z,73.20
2023-04-03T06:51:25.200Z,72.90
2023-04-03T06:53:53.145Z,72.40
2023-04-03T06:56:19.721Z,72.70
2023-04-03T06:58:47.142Z,73.10
2023-04-03T07:01:18.730Z,72.80
2023-04-03T07:03:45.719Z,72.60
2023-04-03T07:06:13.039Z,72.00
2023-04-03T07:08:40.013Z,71.60
2023-04-03T07:11:07.028Z,72.30
2023-04-03T07:13:33.737Z,71.70
2023-04-03T07:16:04.588Z,68.40
2023-04-03T07:18:33.702Z,62.40
2023-04-03T07:21:00.521Z,60.20
2023-04-03T07:23:27.494Z,57.40
2023-04-03T07:25:54.524Z,62.40
2023-04-03T07:28:23.511Z,65.70
2023-04-03T07:30:57.101Z,61.30
2023-04-03T07:33:23.872Z,61.10
2023-04-03T07:35:50.933Z,64.20
2023-04-03T07:38:17.901Z,66.00
2023-04-03T07:40:50.669Z,64.40
2023-04-03T07:43:21.070Z,64.20
2023-04-03T07:45:50.684Z,65.40
2023-04-03T07:48:26.860Z,66.10
2023-04-03T07:50:55.984Z,66.60
2023-04-03T07:53:22.542Z,65.80
2023-04-03T07:55:49.999Z,65.70
2023-04-03T07:58:18.186Z,65.70
2023-04-03T08:00:45.098Z,65.60
2023-04-03T08:03:14.265Z,67.00
2023-04-03T08:05:42.102Z,68.10
2023-04-03T08:08:09.201Z,66.20
2023-04-03T08:10:36.158Z,67.60
2023-04-03T08:13:05.727Z,67.30
2023-04-03T08:15:32.497Z,66.50
2023-04-03T08:17:59.938Z,66.30
2023-04-03T08:20:26.707Z,67.30
2023-04-03T08:22:53.323Z,67.20
2023-04-03T08:25:19.958Z,66.80
2023-04-03T08:27:49.129Z,65.30
2023-04-03T08:30:15.777Z,65.00
2023-04-03T08:32:45.847Z,64.40
2023-04-03T08:35:12.768Z,62.50
2023-04-03T08:37:39.746Z,63.10
2023-04-03T08:40:12.036Z,63.90
2023-04-03T08:42:39.201Z,63.40
2023-04-03T08:45:06.550Z,63.20
2023-04-03T08:47:41.711Z,64.20
2023-04-03T08:50:12.749Z,64.10
2023-04-03T08:52:42.780Z,63.60
2023-04-03T08:55:14.888Z,62.20
2023-04-03T08:57:45.348Z,62.90
2023-04-03T09:00:17.174Z,63.40
2023-04-03T09:02:48.181Z,64.50
2023-04-03T09:05:19.599Z,63.60
2023-04-03T09:07:53.088Z,63.90
2023-04-03T09:10:24.195Z,63.50
2023-04-03T09:13:02.334Z,62.20
2023-04-03T09:15:38.498Z,62.80
2023-04-03T09:18:24.317Z,62.10
2023-04-03T09:20:51.781Z,62.10
2023-04-03T09:23:18.396Z,62.40
2023-04-03T09:25:45.082Z,62.10
2023-04-03T09:28:11.716Z,61.40
2023-04-03T09:30:39.363Z,61.40
2023-04-03T09:33:08.005Z,62.20
2023-04-03T09:35:47.149Z,60.30
2023-04-03T09:38:14.849Z,59.40
2023-04-03T09:40:41.470Z,60.60
2023-04-03T09:43:20.992Z,59.50
2023-04-03T09:45:48.309Z,58.90
2023-04-03T09:48:16.189Z,57.90
2023-04-03T09:50:56.348Z,54.80
2023-04-03T09:53:28.998Z,55.00
2023-04-03T09:55:55.853Z,56.00
2023-04-03T09:58:36.072Z,53.00
2023-04-03T10:01:21.908Z,54.60
2023-04-03T10:04:03.108Z,53.70
2023-04-03T10:06:31.803Z,52.90
2023-04-03T10:09:05.386Z,53.70
2023-04-03T10:11:32.084Z,53.90
2023-04-03T10:14:00.737Z,52.20
2023-04-03T10:16:48.996Z,52.30
2023-04-03T10:19:33.409Z,52.70
2023-04-03T10:22:04.896Z,50.10
2023-04-03T10:24:37.360Z,48.70
2023-04-03T10:27:08.618Z,50.20
2023-04-03T10:29:44.290Z,51.40
2023-04-03T10:32:17.602Z,52.10
2023-04-03T10:34:49.113Z,49.80
2023-04-03T10:37:29.517Z,50.10
2023-04-03T10:39:58.991Z,48.90
2023-04-03T10:42:34.992Z,50.90
2023-04-03T10:45:22.870Z,49.00
2023-04-03T10:48:01.370Z,47.70
2023-04-03T10:50:28.029Z,47.20
2023-04-03T10:53:12.921Z,46.20
2023-04-03T10:55:44.057Z,45.90
2023-04-03T10:58:19.285Z,45.90
2023-04-03T11:00:50.579Z,45.60
2023-04-03T11:03:37.818Z,45.90
2023-04-03T11:06:07.844Z,47.30
2023-04-03T11:08:36.282Z,44.20
2023-04-03T11:11:20.971Z,47.30
2023-04-03T11:13:53.786Z,46.00
2023-04-03T11:16:24.107Z,46.30
2023-04-03T11:18:53.551Z,46.40
2023-04-03T11:21:28.461Z,45.80
2023-04-03T11:24:00.451Z,45.50
2023-04-03T11:26:29.420Z,45.80
2023-04-03T11:28:59.456Z,47.90
2023-04-03T11:31:32.251Z,46.30
2023-04-03T11:34:11.338Z,43.20
2023-04-03T11:36:50.060Z,43.50
2023-04-03T11:39:22.187Z,44.50
2023-04-03T11:41:49.114Z,43.60
2023-04-03T11:44:34.798Z,45.70
2023-04-03T11:47:04.372Z,42.70
2023-04-03T11:49:49.436Z,44.10
2023-04-03T11:52:36.082Z,43.50
2023-04-03T11:55:25.049Z,44.20
2023-04-03T11:58:03.489Z,44.80
2023-04-03T12:00:48.122Z,45.50
2023-04-03T12:03:23.841Z,43.80
2023-04-03T12:05:51.381Z,45.00
2023-04-03T12:08:32.643Z,45.20
2023-04-03T12:11:14.727Z,44.60
2023-04-03T12:13:53.518Z,45.70
2023-04-03T12:16:20.092Z,43.90
2023-04-03T12:18:49.599Z,43.00
2023-04-03T12:21:22.458Z,43.00
2023-04-03T12:23:58.024Z,44.90
2023-04-03T12:26:42.101Z,42.40
2023-04-03T12:29:40.414Z,43.50
2023-04-03T12:32:26.442Z,42.70
2023-04-03T12:35:16.433Z,42.40
2023-04-03T12:38:05.415Z,43.20
2023-04-03T12:40:43.991Z,43.20
2023-04-03T12:43:22.943Z,41.70
2023-04-03T12:45:52.934Z,43.30
2023-04-03T12:48:30.366Z,44.70
2023-04-03T12:50:58.368Z,42.70
2023-04-03T12:53:43.789Z,42.40
2023-04-03T12:56:25.098Z,42.30
2023-04-03T12:58:58.246Z,43.90
2023-04-03T13:01:25.694Z,43.40
2023-04-03T13:03:56.653Z,43.40
2023-04-03T13:06:35.420Z,44.90
2023-04-03T13:09:02.081Z,44.60
2023-04-03T13:11:35.009Z,44.80
2023-04-03T13:14:04.242Z,44.60
2023-04-03T13:16:33.035Z,44.20
2023-04-03T13:18:59.940Z,44.10
2023-04-03T13:21:31.416Z,44.50
2023-04-03T13:24:13.985Z,45.10
2023-04-03T13:26:42.984Z,44.60
2023-04-03T13:29:24.286Z,43.10
2023-04-03T13:31:57.774Z,43.40
2023-04-03T13:34:26.874Z,42.50
2023-04-03T13:36:57.656Z,43.00
2023-04-03T13:39:26.844Z,41.90
2023-04-03T13:42:02.601Z,42.20
2023-04-03T13:44:29.217Z,42.90
2023-04-03T13:46:57.155Z,42.20
2023-04-03T13:49:30.332Z,44.00
2023-04-03T13:52:07.169Z,42.30
2023-04-03T13:54:34.905Z,43.40
2023-04-03T13:57:02.152Z,44.10
2023-04-03T13:59:31.246Z,45.10
2023-04-03T14:02:04.006Z,43.60
2023-04-03T14:04:30.573Z,43.40
2023-04-03T14:06:57.516Z,43.30
2023-04-03T14:14:20.320Z,43.10
2023-04-03T14:16:49.172Z,44.00
2023-04-03T14:19:18.733Z,43.10
2023-04-03T14:21:45.304Z,42.30
2023-04-03T14:24:12.424Z,42.80
2023-04-03T14:26:42.005Z,42.70
2023-04-03T14:29:11.409Z,44.20
2023-04-03T14:31:38.298Z,44.30
2023-04-03T14:34:07.873Z,41.70
2023-04-03T14:36:37.998Z,42.60
2023-04-03T14:39:08.282Z,43.10
2023-04-03T14:41:37.110Z,42.60
2023-04-03T14:44:03.740Z,43.10
2023-04-03T14:46:42.926Z,42.40
2023-04-03T14:49:17.155Z,42.50
2023-04-03T14:51:43.743Z,43.10
2023-04-03T14:54:17.679Z,43.00
2023-04-03T14:56:45.561Z,43.40
2023-04-03T14:59:15.494Z,43.60
2023-04-03T15:01:42.374Z,42.80
2023-04-03T15:04:16.455Z,41.40
2023-04-03T15:06:43.626Z,42.50
2023-04-03T15:09:26.537Z,43.00
2023-04-03T15:11:53.848Z,43.20
2023-04-03T15:14:35.279Z,43.30
2023-04-03T15:17:07.543Z,43.20
2023-04-03T15:19:37.592Z,42.80
2023-04-03T15:22:04.456Z,43.70
2023-04-03T15:24:31.078Z,43.10
2023-04-03T15:26:57.658Z,43.30
2023-04-03T15:29:24.243Z,42.70
2023-04-03T15:31:53.701Z,42.20
2023-04-03T15:34:22.468Z,42.10
2023-04-03T15:36:49.913Z,42.30
2023-04-03T15:39:17.339Z,42.80
2023-04-03T15:41:46.420Z,43.20
2023-04-03T15:44:18.390Z,43.00
2023-04-03T15:46:52.339Z,43.00
2023-04-03T15:49:20.584Z,42.00
2023-04-03T15:51:47.180Z,41.20
2023-04-03T15:54:13.902Z,42.10
2023-04-03T15:56:40.469Z,42.50
2023-04-03T15:59:07.080Z,43.20
2023-04-03T16:01:33.976Z,43.90
2023-04-03T16:04:00.878Z,43.20
2023-04-03T16:06:30.267Z,43.70
2023-04-03T16:08:59.846Z,43.60
2023-04-03T16:11:28.977Z,43.40
2023-04-03T16:13:55.547Z,43.80
2023-04-03T16:16:22.710Z,44.00
2023-04-03T16:18:49.404Z,43.90
2023-04-03T16:21:17.254Z,43.60
2023-04-03T16:23:44.289Z,44.20
2023-04-03T16:26:10.972Z,43.50
2023-04-03T16:28:37.853Z,42.90
2023-04-03T16:31:06.082Z,43.40
2023-04-03T16:33:32.780Z,44.00
2023-04-03T16:35:59.530Z,43.50
2023-04-03T16:38:28.642Z,44.00
2023-04-03T16:40:57.892Z,44.90
2023-04-03T16:43:24.531Z,45.00
2023-04-03T16:45:51.112Z,45.60
2023-04-03T16:48:21.855Z,45.70
2023-04-03T16:50:49.870Z,45.20
2023-04-03T16:53:16.486Z,45.10
2023-04-03T16:55:43.178Z,45.10
2023-04-03T16:58:11.968Z,45.10
2023-04-03T17:00:38.670Z,45.40
2023-04-03T17:03:05.387Z,45.70
2023-04-03T17:05:34.597Z,46.10
2023-04-03T17:08:01.997Z,46.10
2023-04-03T17:10:28.978Z,46.40
2023-04-03T17:12:55.542Z,46.50
2023-04-03T17:15:22.180Z,46.50
2023-04-03T17:17:49.811Z,45.80
2023-04-03T17:20:16.551Z,46.30
2023-04-03T17:22:45.477Z,45.60
2023-04-03T17:25:15.670Z,44.70
2023-04-03T17:27:42.313Z,44.90
2023-04-03T17:30:09.419Z,45.30
2023-04-03T17:32:36.340Z,45.80
2023-04-03T17:35:05.412Z,46.30
2023-04-03T17:37:34.226Z,46.30
2023-04-03T17:40:01.003Z,46.70
2023-04-03T17:42:27.719Z,45.90
2023-04-03T17:44:54.442Z,46.50
2023-04-03T17:47:23.251Z,46.60
2023-04-03T17:49:51.678Z,46.40
2023-04-03T17:52:24.085Z,46.00
2023-04-03T17:54:50.872Z,46.40
2023-04-03T17:57:17.536Z,46.70
2023-04-03T17:59:44.161Z,47.00
2023-04-03T18:02:13.142Z,47.50
2023-04-03T18:04:39.752Z,47.90
2023-04-03T18:07:09.824Z,48.00
2023-04-03T18:09:40.844Z,48.10
2023-04-03T18:12:10.492Z,48.10
2023-04-03T18:14:38.288Z,48.70
2023-04-03T18:17:04.920Z,49.10
2023-04-03T18:19:31.642Z,49.30
2023-04-03T18:22:01.212Z,49.60
2023-04-03T18:24:27.981Z,50.10
2023-04-03T18:26:57.725Z,50.20
2023-04-03T18:29:24.720Z,50.30
2023-04-03T18:31:52.302Z,50.30
2023-04-03T18:34:19.215Z,50.40
2023-04-03T18:36:49.101Z,50.40
2023-04-03T18:39:15.733Z,51.00
2023-04-03T18:41:42.460Z,51.20
2023-04-03T18:44:11.994Z,51.40
2023-04-03T18:46:38.991Z,52.00
2023-04-03T18:49:05.915Z,52.10
2023-04-03T18:51:32.593Z,52.20
2023-04-03T18:53:59.336Z,52.60
2023-04-03T18:56:26.373Z,52.20
2023-04-03T18:58:55.377Z,52.70
2023-04-03T19:01:22.122Z,53.10
2023-04-03T19:03:48.902Z,53.00
2023-04-03T19:06:15.768Z,53.10
2023-04-03T19:08:45.567Z,53.10
2023-04-03T19:11:12.161Z,53.20
2023-04-03T19:13:47.120Z,53.20
2023-04-03T19:16:28.197Z,53.60
2023-04-03T19:18:54.786Z,54.30
2023-04-03T19:21:23.699Z,54.80
2023-04-03T19:23:52.689Z,54.90
2023-04-03T19:26:20.246Z,54.60
2023-04-03T19:28:48.867Z,54.80
2023-04-03T19:31:16.642Z,54.80
2023-04-03T19:33:46.167Z,54.20
2023-04-03T19:36:16.013Z,54.20
2023-04-03T19:38:44.829Z,53.20
2023-04-03T19:41:13.108Z,53.40
2023-04-03T19:43:39.942Z,52.80
2023-04-03T19:46:07.263Z,52.80
2023-04-03T19:48:35.366Z,53.60
2023-04-03T19:51:05.857Z,53.90
2023-04-03T19:53:32.488Z,54.30
2023-04-03T19:55:59.149Z,54.40
2023-04-03T19:58:30.007Z,54.30
2023-04-03T20:00:57.728Z,54.10
2023-04-03T20:03:24.537Z,54.00
2023-04-03T20:05:51.780Z,53.70
2023-04-03T20:08:18.881Z,53.60
2023-04-03T20:10:45.734Z,53.00
2023-04-03T20:13:15.227Z,53.60
2023-04-03T20:15:42.830Z,54.10
2023-04-03T20:18:10.846Z,54.40
2023-04-03T20:20:42.192Z,55.40
2023-04-03T20:23:11.148Z,55.50
2023-04-03T20:25:54.021Z,55.80
2023-04-03T20:28:27.941Z,55.70
2023-04-03T20:30:57.001Z,55.60
2023-04-03T20:33:26.268Z,55.70
2023-04-03T20:35:54.264Z,55.90
2023-04-03T20:38:22.984Z,55.90
2023-04-03T20:40:49.983Z,55.90
2023-04-03T20:43:19.417Z,56.70
2023-04-03T20:45:46.085Z,57.60
2023-04-03T20:48:13.270Z,57.90
2023-04-03T20:50:41.258Z,57.50
2023-04-03T20:53:08.291Z,58.70
2023-04-03T20:55:35.139Z,58.70
2023-04-03T20:58:02.216Z,58.40
2023-04-03T21:00:32.233Z,58.90
2023-04-03T21:03:01.504Z,58.70
2023-04-03T21:05:30.592Z,58.00
2023-04-03T21:08:17.075Z,58.90
2023-04-03T21:11:03.037Z,59.30
2023-04-03T21:13:48.657Z,59.40
2023-04-03T21:16:15.481Z,59.30
2023-04-03T21:18:42.411Z,59.60
2023-04-03T21:21:17.264Z,59.80
2023-04-03T21:23:47.419Z,59.60
2023-04-03T21:26:14.227Z,59.50
2023-04-03T21:28:42.575Z,60.20
2023-04-03T21:31:11.510Z,60.30
2023-04-03T21:33:40.850Z,60.40
2023-04-03T21:36:08.127Z,60.80
2023-04-03T21:38:35.703Z,61.20
2023-04-03T21:41:02.388Z,61.00
2023-04-03T21:43:31.198Z,60.20
2023-04-03T21:45:58.764Z,59.70
2023-04-03T21:48:25.852Z,59.20
2023-04-03T21:50:53.650Z,59.90
2023-04-03T21:53:21.336Z,59.50
2023-04-03T21:55:54.728Z,59.40
2023-04-03T21:58:21.486Z,59.80
2023-04-03T22:00:48.164Z,59.50
2023-04-03T22:03:23.475Z,59.90
2023-04-03T22:05:50.495Z,60.20
2023-04-03T22:08:17.896Z,60.60
2023-04-03T22:10:45.015Z,60.90
2023-04-03T22:13:11.645Z,61.50
2023-04-03T22:15:42.811Z,62.00
2023-04-03T22:18:12.081Z,62.20
2023-04-03T22:20:38.976Z,62.90
2023-04-03T22:23:11.144Z,62.30
2023-04-03T22:25:37.757Z,61.50
2023-04-03T22:28:04.312Z,61.40
2023-04-03T22:30:31.452Z,60.50
2023-04-03T22:32:58.085Z,60.20
2023-04-03T22:35:24.768Z,59.90
2023-04-03T22:37:51.620Z,60.30
2023-04-03T22:40:18.390Z,60.50
2023-04-03T22:42:48.166Z,60.50
2023-04-03T22:45:15.245Z,61.20
2023-04-03T22:47:44.276Z,61.00
2023-04-03T22:50:11.178Z,60.60
2023-04-03T22:52:40.231Z,60.50
2023-04-03T22:55:19.048Z,60.50
2023-04-03T22:57:49.265Z,60.70
2023-04-03T23:00:20.605Z,61.70
2023-04-03T23:02:47.417Z,61.10
2023-04-03T23:05:14.045Z,61.20
2023-04-03T23:07:40.580Z,61.40
2023-04-03T23:10:07.406Z,61.40
2023-04-03T23:12:40.190Z,62.10
2023-04-03T23:15:07.494Z,63.00
2023-04-03T23:17:37.999Z,63.50
2023-04-03T23:20:07.852Z,63.50
2023-04-03T23:22:34.403Z,64.00
2023-04-03T23:25:01.457Z,63.30
2023-04-03T23:27:30.228Z,64.40
2023-04-03T23:29:56.948Z,64.60
2023-04-03T23:32:26.030Z,64.20
2023-04-03T23:34:52.811Z,64.30
2023-04-03T23:37:19.418Z,63.90
2023-04-03T23:39:46.330Z,64.20
2023-04-03T23:42:12.936Z,64.50
2023-04-03T23:44:39.544Z,65.10
2023-04-03T23:47:06.187Z,64.70
2023-04-03T23:49:33.036Z,65.40
2023-04-03T23:51:59.677Z,65.50
2023-04-03T23:54:31.455Z,65.80
2023-04-03T23:57:00.922Z,66.50
2023-04-03T23:59:27.763Z,66.60
